Portada
METAR-TAF:

METAR-TAF

Aeroports :

Amman, Jordània

latitud: 31-59N, longitud: 035-59E, altitud: 767 m

Observació

L'informe es va fer fa 38 minuts, a les 08:00 UTC
Vent 10 kt del Est/Sud-Est
Temperatura 23°C
Humitat 22%
Pressió 1016 hPa
Visibilitat: 6000 m

METAR: OJAM 240800Z 11010KT 6000 NSC 23/00 Q1016 NOSIG

Hora: 11:38 (08:38 UTC)

Pronòstic

L'informe es va fer fa 2 hores i 48 minuts, a les 05:50 UTC
Pronòstic vàlid del 24 a les 06 UTC al 25 a les 12 UTC
Vent 2 kt amb direcció variable
Visibilitat: 5000 m
calitja
Evolucionant progressivament
l' 24 a les 08 UTC al 24 a les 10 UTC
Vent 12 kt del Est/Sud-Est
Evolucionant progressivament
l' 24 a les 18 UTC al 24 a les 20 UTC
Vent 14 kt del Est/Sud-Est
Visibilitat: 6000 m
Escasses núvols a una alçada de 3500 ft

TAF: OJAM 240550Z 2406/2512 VRB02KT 5000 HZ NSC BECMG 2408/2410 11012KT BECMG 2418/2420 12014KT 6000 FEW035

Observacions i pronòstics meteorològics de més de 4000 aeroports (METAR i TAF).

Les estacions disponibles són els punts grocs i vermells al mapa.

Posi el ratolí al punt desitjat per veure el nom de l'estació.

Feu clic per veure les observacions i els pronòstics meteorològics.

Per canviar el mapa: feu clic els botons verds amb una creu de color negre per apropar; al botó verd amb un guió per allunyar la imatge; o en les fletxes verdes per a mapes adjacents.


METAR-TAF: